createdAt,value
2018-08-19T00:00:38.794Z,16.50
2018-08-19T00:01:38.364Z,16.50
2018-08-19T00:02:38.396Z,15.80
2018-08-19T00:03:38.360Z,15.80
2018-08-19T00:04:38.422Z,15.80
2018-08-19T00:05:38.322Z,17.10
2018-08-19T00:06:38.321Z,16.50
2018-08-19T00:07:38.303Z,16.60
2018-08-19T00:08:38.284Z,16.60
2018-08-19T00:09:38.271Z,15.30
2018-08-19T00:10:38.258Z,16.90
2018-08-19T00:11:38.273Z,16.60
2018-08-19T00:12:38.255Z,16.80
2018-08-19T00:13:38.229Z,15.20
2018-08-19T00:14:38.223Z,14.90
2018-08-19T00:15:38.213Z,15.60
2018-08-19T00:16:38.223Z,15.40
2018-08-19T00:17:38.183Z,15.90
2018-08-19T00:18:38.199Z,14.80
2018-08-19T00:19:38.158Z,14.80
2018-08-19T00:20:38.166Z,14.20
2018-08-19T00:21:38.224Z,14.60
2018-08-19T00:22:38.151Z,15.00
2018-08-19T00:23:38.146Z,15.00
2018-08-19T00:24:38.107Z,14.60
2018-08-19T00:25:38.191Z,14.00
2018-08-19T00:26:38.088Z,13.40
2018-08-19T00:27:38.095Z,15.00
2018-08-19T00:28:38.562Z,15.70
2018-08-19T00:29:38.077Z,13.70
2018-08-19T00:30:38.037Z,14.80
2018-08-19T00:31:38.026Z,16.60
2018-08-19T00:32:38.132Z,15.50
2018-08-19T00:33:38.007Z,16.60
2018-08-19T00:34:38.148Z,15.70
2018-08-19T00:35:37.996Z,17.00
2018-08-19T00:36:38.098Z,17.10
2018-08-19T00:37:38.000Z,17.60
2018-08-19T00:38:38.056Z,16.40
2018-08-19T00:39:37.945Z,16.50
2018-08-19T00:40:37.930Z,15.60
2018-08-19T00:41:37.919Z,15.00
2018-08-19T00:42:37.956Z,17.60
2018-08-19T00:43:37.936Z,16.30
2018-08-19T00:44:37.927Z,16.50
2018-08-19T00:45:37.963Z,15.20
2018-08-19T00:46:37.941Z,15.50
2018-08-19T00:47:37.855Z,14.60
2018-08-19T00:48:37.861Z,15.40
2018-08-19T00:49:37.830Z,15.30
2018-08-19T00:50:37.816Z,15.40
2018-08-19T00:51:37.809Z,14.70
2018-08-19T00:52:37.830Z,14.50
2018-08-19T00:53:37.813Z,15.40
2018-08-19T00:54:37.782Z,15.80
2018-08-19T00:55:37.760Z,16.40
2018-08-19T00:56:37.751Z,15.90
2018-08-19T00:57:37.743Z,16.20
2018-08-19T00:58:37.734Z,14.80
2018-08-19T00:59:37.742Z,15.20
2018-08-19T01:00:37.710Z,14.20
2018-08-19T01:01:37.806Z,14.90
2018-08-19T01:02:37.728Z,16.30
2018-08-19T01:03:37.702Z,16.60
2018-08-19T01:04:37.682Z,14.20
2018-08-19T01:05:37.676Z,14.40
2018-08-19T01:06:37.682Z,14.10
2018-08-19T01:07:37.635Z,12.40
2018-08-19T01:08:37.620Z,13.80
2018-08-19T01:09:37.633Z,13.10
2018-08-19T01:10:37.596Z,13.50
2018-08-19T01:11:37.589Z,13.70
2018-08-19T01:12:37.581Z,15.00
2018-08-19T01:13:37.565Z,14.60
2018-08-19T01:14:37.608Z,15.70
2018-08-19T01:15:37.539Z,16.30
2018-08-19T01:16:37.531Z,15.50
2018-08-19T01:17:37.534Z,13.90
2018-08-19T01:18:37.514Z,16.20
2018-08-19T01:19:37.625Z,14.60
2018-08-19T01:20:37.526Z,15.90
2018-08-19T01:21:37.568Z,16.10
2018-08-19T01:22:37.477Z,16.70
2018-08-19T01:23:37.450Z,15.60
2018-08-19T01:24:37.474Z,15.40
2018-08-19T01:25:37.453Z,16.30
2018-08-19T01:26:37.424Z,16.10
2018-08-19T01:27:37.407Z,16.00
2018-08-19T01:28:37.398Z,16.00
2018-08-19T01:29:37.405Z,18.40
2018-08-19T01:30:37.471Z,18.30
2018-08-19T01:31:37.408Z,17.50
2018-08-19T01:32:37.356Z,16.20
2018-08-19T01:33:37.361Z,18.20
2018-08-19T01:34:37.328Z,17.50
2018-08-19T01:35:37.337Z,18.50
2018-08-19T01:36:37.309Z,18.30
2018-08-19T01:37:37.305Z,19.80
2018-08-19T01:38:37.290Z,19.30
2018-08-19T01:39:37.278Z,19.50
2018-08-19T01:40:37.296Z,19.20
2018-08-19T01:41:37.267Z,18.10
2018-08-19T01:42:37.259Z,17.10
2018-08-19T01:43:37.288Z,18.20
2018-08-19T01:44:37.226Z,18.50
2018-08-19T01:45:37.207Z,17.10
2018-08-19T01:46:37.224Z,17.30
2018-08-19T01:47:37.205Z,18.30
2018-08-19T01:48:37.174Z,18.80
2018-08-19T01:49:37.170Z,18.10
2018-08-19T01:50:37.168Z,18.40
2018-08-19T01:51:37.165Z,20.00
2018-08-19T01:52:37.239Z,17.40
2018-08-19T01:53:37.119Z,18.10
2018-08-19T01:54:37.150Z,17.40
2018-08-19T01:55:37.100Z,18.60
2018-08-19T01:56:37.104Z,17.50
2018-08-19T01:57:37.082Z,16.90
2018-08-19T01:58:37.071Z,18.30
2018-08-19T01:59:37.057Z,16.90
2018-08-19T02:00:37.067Z,19.30
2018-08-19T02:01:37.085Z,19.90
2018-08-19T02:02:37.026Z,19.60
2018-08-19T02:03:37.018Z,20.30
2018-08-19T02:04:37.595Z,20.50
2018-08-19T02:05:36.986Z,21.30
2018-08-19T02:06:37.048Z,21.10
2018-08-19T02:07:36.967Z,21.10
2018-08-19T02:08:37.127Z,22.40
2018-08-19T02:09:36.947Z,22.00
2018-08-19T02:10:36.946Z,21.50
2018-08-19T02:11:36.946Z,20.90
2018-08-19T02:12:36.917Z,21.60
2018-08-19T02:13:36.899Z,21.10
2018-08-19T02:14:36.897Z,22.70
2018-08-19T02:15:36.884Z,23.20
2018-08-19T02:16:36.894Z,22.40
2018-08-19T02:17:36.853Z,22.40
2018-08-19T02:18:36.844Z,21.70
2018-08-19T02:19:36.833Z,22.40
2018-08-19T02:20:36.848Z,23.10
2018-08-19T02:21:36.846Z,21.60
2018-08-19T02:22:36.804Z,21.90
2018-08-19T02:23:36.792Z,23.20
2018-08-19T02:24:36.788Z,22.80
2018-08-19T02:25:36.766Z,23.50
2018-08-19T02:26:36.756Z,24.80
2018-08-19T02:27:36.798Z,23.30
2018-08-19T02:28:36.740Z,22.50
2018-08-19T02:29:36.754Z,23.10
2018-08-19T02:30:36.714Z,22.70
2018-08-19T02:31:36.701Z,25.30
2018-08-19T02:32:36.708Z,23.40
2018-08-19T02:33:36.685Z,22.40
2018-08-19T02:34:36.670Z,24.10
2018-08-19T02:35:36.659Z,23.20
2018-08-19T02:36:36.650Z,22.50
2018-08-19T02:37:36.651Z,23.90
2018-08-19T02:38:36.624Z,24.20
2018-08-19T02:39:36.612Z,24.00
2018-08-19T02:40:36.599Z,23.00
2018-08-19T02:41:36.596Z,23.40
2018-08-19T02:42:36.600Z,22.80
2018-08-19T02:43:36.585Z,23.50
2018-08-19T02:44:36.562Z,22.00
2018-08-19T02:45:36.548Z,22.20
2018-08-19T02:46:36.535Z,23.10
2018-08-19T02:47:36.544Z,23.00
2018-08-19T02:48:36.517Z,23.90
2018-08-19T02:49:36.499Z,22.60
2018-08-19T02:50:36.492Z,23.80
2018-08-19T02:51:36.479Z,23.20
2018-08-19T02:52:36.485Z,20.20
2018-08-19T02:53:36.462Z,19.20
2018-08-19T02:54:36.448Z,23.10
2018-08-19T02:55:36.439Z,20.00
2018-08-19T02:56:36.430Z,24.00
2018-08-19T02:57:36.448Z,21.90
2018-08-19T02:58:36.403Z,22.30
2018-08-19T02:59:36.390Z,22.20
2018-08-19T03:00:36.379Z,20.30
2018-08-19T03:01:36.374Z,21.40
2018-08-19T03:02:36.360Z,19.70
2018-08-19T03:03:36.582Z,19.70
2018-08-19T03:04:36.332Z,19.10
2018-08-19T03:05:36.329Z,21.60
2018-08-19T03:06:36.347Z,21.40
2018-08-19T03:07:36.304Z,20.90
2018-08-19T03:08:36.314Z,19.10
2018-08-19T03:09:36.278Z,20.30
2018-08-19T03:10:36.348Z,19.80
2018-08-19T03:11:36.258Z,19.70
2018-08-19T03:12:36.245Z,18.90
2018-08-19T03:13:36.260Z,18.90
2018-08-19T03:14:36.258Z,20.70
2018-08-19T03:15:36.216Z,19.30
2018-08-19T03:16:36.207Z,19.30
2018-08-19T03:17:36.189Z,20.00
2018-08-19T03:18:36.205Z,21.00
2018-08-19T03:19:36.173Z,21.30
2018-08-19T03:20:36.163Z,20.00
2018-08-19T03:21:36.148Z,20.80
2018-08-19T03:22:36.195Z,19.30
2018-08-19T03:23:36.160Z,20.30
2018-08-19T03:24:36.120Z,22.00
2018-08-19T03:25:36.108Z,21.50
2018-08-19T03:26:36.094Z,21.50
2018-08-19T03:27:36.101Z,22.00
2018-08-19T03:28:36.105Z,19.20
2018-08-19T03:29:36.080Z,18.30
2018-08-19T03:30:36.048Z,19.80
2018-08-19T03:31:36.047Z,19.20
2018-08-19T03:32:36.183Z,17.40
2018-08-19T03:33:36.029Z,17.60
2018-08-19T03:34:36.212Z,16.30
2018-08-19T03:35:36.025Z,16.50
2018-08-19T03:36:35.980Z,17.10
2018-08-19T03:37:35.976Z,17.10
2018-08-19T03:38:36.067Z,17.80
2018-08-19T03:39:35.953Z,18.80
2018-08-19T03:40:36.008Z,19.80
2018-08-19T03:41:35.937Z,18.60
2018-08-19T03:42:36.268Z,18.60
2018-08-19T03:43:35.927Z,18.90
2018-08-19T03:44:35.891Z,16.70
2018-08-19T03:45:35.890Z,17.30
2018-08-19T03:46:35.926Z,17.80
2018-08-19T03:47:35.881Z,18.10
2018-08-19T03:48:35.878Z,16.90
2018-08-19T03:49:35.837Z,18.70
2018-08-19T03:50:35.826Z,18.00
2018-08-19T03:51:35.827Z,17.00
2018-08-19T03:52:35.839Z,17.10
2018-08-19T03:53:35.792Z,18.40
2018-08-19T03:54:35.809Z,18.50
2018-08-19T03:55:35.772Z,17.50
2018-08-19T03:56:35.762Z,16.80
2018-08-19T03:57:35.755Z,17.90
2018-08-19T03:58:35.741Z,17.60
2018-08-19T03:59:35.818Z,17.20
2018-08-19T04:00:35.771Z,16.90
2018-08-19T04:01:35.710Z,17.40
2018-08-19T04:02:35.842Z,16.40
2018-08-19T04:03:36.030Z,17.40
2018-08-19T04:04:35.963Z,18.20
2018-08-19T04:05:35.666Z,17.40
2018-08-19T04:06:35.684Z,18.00
2018-08-19T04:07:35.652Z,18.60
2018-08-19T04:08:35.685Z,18.90
2018-08-19T04:09:35.662Z,18.30
2018-08-19T04:10:36.510Z,18.20
2018-08-19T04:11:35.653Z,16.80
2018-08-19T04:12:36.112Z,16.60
2018-08-19T04:13:35.589Z,16.70
2018-08-19T04:14:35.984Z,17.10
2018-08-19T04:15:36.111Z,17.60
2018-08-19T04:16:35.607Z,16.70
2018-08-19T04:17:35.761Z,15.80
2018-08-19T04:18:35.544Z,15.50
2018-08-19T04:19:35.555Z,15.80
2018-08-19T04:20:35.644Z,16.10
2018-08-19T04:21:35.597Z,17.30
2018-08-19T04:22:35.823Z,15.70
2018-08-19T04:23:35.534Z,15.90
2018-08-19T04:24:35.468Z,16.10
2018-08-19T04:25:35.472Z,16.50
2018-08-19T04:26:36.097Z,16.00
2018-08-19T04:27:35.716Z,17.30
2018-08-19T04:28:35.436Z,16.40
2018-08-19T04:29:35.401Z,16.80
2018-08-19T04:30:35.475Z,17.40
2018-08-19T04:31:35.519Z,16.40
2018-08-19T04:32:35.456Z,16.30
2018-08-19T04:33:35.398Z,16.90
2018-08-19T04:34:35.426Z,17.30
2018-08-19T04:35:35.446Z,17.10
2018-08-19T04:36:35.557Z,18.10
2018-08-19T04:37:35.383Z,17.00
2018-08-19T04:38:35.321Z,18.80
2018-08-19T04:39:35.630Z,17.50
2018-08-19T04:40:35.365Z,16.80
2018-08-19T04:41:35.313Z,17.70
2018-08-19T04:42:35.263Z,18.20
2018-08-19T04:43:35.281Z,17.70
2018-08-19T04:44:35.240Z,17.00
2018-08-19T04:45:35.236Z,17.40
2018-08-19T04:46:35.520Z,17.30
2018-08-19T04:47:35.202Z,17.10
2018-08-19T04:48:35.295Z,17.00
2018-08-19T04:49:35.207Z,16.30
2018-08-19T04:50:35.180Z,16.80
2018-08-19T04:51:35.241Z,18.90
2018-08-19T04:52:35.184Z,17.60
2018-08-19T04:53:35.284Z,17.30
2018-08-19T04:54:35.251Z,18.00
2018-08-19T04:55:35.143Z,17.00
2018-08-19T04:56:35.478Z,16.90
2018-08-19T04:57:35.101Z,17.30
2018-08-19T04:58:35.131Z,17.00
2018-08-19T04:59:35.195Z,16.90
2018-08-19T05:00:35.091Z,15.90
2018-08-19T05:01:35.165Z,15.90
2018-08-19T05:02:35.241Z,16.60
2018-08-19T05:03:35.066Z,16.50
2018-08-19T05:04:35.070Z,16.60
2018-08-19T05:05:35.025Z,16.60
2018-08-19T05:06:35.238Z,16.60
2018-08-19T05:07:35.883Z,16.30
2018-08-19T05:08:35.022Z,16.80
2018-08-19T05:09:35.057Z,15.70
2018-08-19T05:10:34.966Z,16.70
2018-08-19T05:11:35.075Z,17.00
2018-08-19T05:12:34.943Z,16.00
2018-08-19T05:13:34.918Z,16.00
2018-08-19T05:14:35.340Z,15.30
2018-08-19T05:15:35.018Z,15.60
2018-08-19T05:16:34.961Z,15.00
2018-08-19T05:17:35.101Z,15.60
2018-08-19T05:18:35.088Z,14.40
2018-08-19T05:19:34.996Z,15.00
2018-08-19T05:20:34.905Z,14.70
2018-08-19T05:21:34.912Z,15.60
2018-08-19T05:22:35.108Z,15.80
2018-08-19T05:23:35.185Z,15.30
2018-08-19T05:24:34.838Z,14.50
2018-08-19T05:25:34.854Z,15.10
2018-08-19T05:26:34.818Z,14.90
2018-08-19T05:27:34.827Z,14.60
2018-08-19T05:28:34.845Z,14.60
2018-08-19T05:29:34.884Z,14.40
2018-08-19T05:30:34.925Z,15.00
2018-08-19T05:31:35.171Z,14.70
2018-08-19T05:32:34.764Z,14.00
2018-08-19T05:33:34.714Z,14.00
2018-08-19T05:34:34.819Z,14.90
2018-08-19T05:35:34.989Z,15.20
2018-08-19T05:36:34.719Z,14.20
2018-08-19T05:37:34.751Z,14.50
2018-08-19T05:38:34.720Z,14.50
2018-08-19T05:39:34.919Z,15.20
2018-08-19T05:40:34.631Z,14.10
2018-08-19T05:41:34.649Z,14.30
2018-08-19T05:42:34.624Z,13.50
2018-08-19T05:43:34.749Z,14.30
2018-08-19T05:44:34.684Z,13.80
2018-08-19T05:45:34.596Z,13.70
2018-08-19T05:46:34.556Z,14.00
2018-08-19T05:47:34.567Z,14.80
2018-08-19T05:48:34.537Z,15.40
2018-08-19T05:49:34.518Z,14.10
2018-08-19T05:50:34.507Z,14.40
2018-08-19T05:51:34.504Z,12.20
2018-08-19T05:52:34.517Z,13.60
2018-08-19T05:53:34.479Z,12.90
2018-08-19T05:54:34.469Z,12.00
2018-08-19T05:55:34.494Z,11.90
2018-08-19T05:56:34.446Z,12.50
2018-08-19T05:57:34.449Z,12.00
2018-08-19T05:58:34.422Z,11.40
2018-08-19T05:59:34.415Z,11.50
2018-08-19T06:00:34.433Z,11.20
2018-08-19T06:01:34.387Z,10.60
2018-08-19T06:02:34.400Z,10.70
2018-08-19T06:03:34.366Z,10.40
2018-08-19T06:04:34.498Z,10.00
2018-08-19T06:05:36.096Z,11.20
2018-08-19T06:06:34.835Z,9.90
2018-08-19T06:07:34.678Z,10.40
2018-08-19T06:08:34.356Z,10.00
2018-08-19T06:09:34.306Z,9.50
2018-08-19T06:10:34.320Z,9.80
2018-08-19T06:11:34.458Z,9.40
2018-08-19T06:12:34.292Z,10.20
2018-08-19T06:13:34.279Z,9.50
2018-08-19T06:14:34.272Z,9.70
2018-08-19T06:15:34.471Z,9.20
2018-08-19T06:16:34.818Z,10.20
2018-08-19T06:17:34.656Z,9.50
2018-08-19T06:18:34.248Z,9.50
2018-08-19T06:19:34.442Z,9.80
2018-08-19T06:20:34.242Z,9.50
2018-08-19T06:21:34.726Z,9.40
2018-08-19T06:22:34.958Z,9.30
2018-08-19T06:23:34.210Z,9.70
2018-08-19T06:24:34.169Z,9.20
2018-08-19T06:25:34.209Z,10.10
2018-08-19T06:26:34.334Z,9.30
2018-08-19T06:27:34.156Z,8.50
2018-08-19T06:28:34.171Z,9.70
2018-08-19T06:29:34.099Z,9.10
2018-08-19T06:30:34.088Z,9.60
2018-08-19T06:31:34.127Z,9.10
2018-08-19T06:32:34.248Z,8.70
2018-08-19T06:33:34.099Z,8.30
2018-08-19T06:34:34.170Z,8.60
2018-08-19T06:35:34.326Z,8.70
2018-08-19T06:36:34.113Z,8.80
2018-08-19T06:37:34.227Z,8.30
2018-08-19T06:38:34.083Z,8.60
2018-08-19T06:39:34.176Z,7.90
2018-08-19T06:40:33.977Z,8.00
2018-08-19T06:41:34.162Z,7.90
2018-08-19T06:42:34.118Z,7.70
2018-08-19T06:43:34.000Z,7.40
2018-08-19T06:44:33.916Z,7.40
2018-08-19T06:45:33.939Z,7.90
2018-08-19T06:46:33.969Z,8.30
2018-08-19T06:47:33.916Z,7.40
2018-08-19T06:48:34.074Z,7.70
2018-08-19T06:49:33.959Z,8.00
2018-08-19T06:50:33.873Z,7.70
2018-08-19T06:51:33.877Z,7.70
2018-08-19T06:52:34.179Z,7.80
2018-08-19T06:53:33.827Z,7.70
2018-08-19T06:54:34.026Z,8.00
2018-08-19T06:55:34.111Z,7.70
2018-08-19T06:56:33.787Z,8.30
2018-08-19T06:57:33.946Z,8.10
2018-08-19T06:58:33.945Z,7.70
2018-08-19T06:59:33.952Z,7.70
2018-08-19T07:00:33.768Z,8.20
2018-08-19T07:01:33.774Z,7.70
2018-08-19T07:02:33.895Z,7.60
2018-08-19T07:03:33.978Z,8.30
2018-08-19T07:04:33.725Z,7.90
2018-08-19T07:05:33.805Z,8.40
2018-08-19T07:06:34.382Z,8.00
2018-08-19T07:07:33.748Z,7.80
2018-08-19T07:08:33.767Z,8.00
2018-08-19T07:09:34.131Z,7.90
2018-08-19T07:10:33.748Z,8.00
2018-08-19T07:11:33.772Z,8.10
2018-08-19T07:12:33.679Z,7.90
2018-08-19T07:13:33.627Z,8.10
2018-08-19T07:14:33.697Z,8.20
2018-08-19T07:15:33.700Z,7.70
2018-08-19T07:16:33.778Z,7.60
2018-08-19T07:17:33.579Z,7.30
2018-08-19T07:18:33.635Z,8.00
2018-08-19T07:19:33.556Z,7.90
2018-08-19T07:20:33.652Z,7.80
2018-08-19T07:21:33.574Z,8.00
2018-08-19T07:22:33.542Z,7.90
2018-08-19T07:23:33.531Z,7.90
2018-08-19T07:24:33.659Z,7.80
2018-08-19T07:25:33.514Z,7.90
2018-08-19T07:26:33.473Z,7.10
2018-08-19T07:27:33.464Z,7.30
2018-08-19T07:28:33.471Z,7.50
2018-08-19T07:29:33.493Z,7.10
2018-08-19T07:30:33.512Z,7.00
2018-08-19T07:31:33.578Z,7.70
2018-08-19T07:32:33.414Z,7.70
2018-08-19T07:33:33.399Z,7.60
2018-08-19T07:34:33.588Z,6.80
2018-08-19T07:35:33.611Z,7.00
2018-08-19T07:36:33.875Z,7.20
2018-08-19T07:37:33.509Z,6.90
2018-08-19T07:38:33.332Z,6.50
2018-08-19T07:39:33.680Z,7.10
2018-08-19T07:40:33.675Z,7.10
2018-08-19T07:41:33.405Z,5.70
2018-08-19T07:42:33.321Z,6.10
2018-08-19T07:43:33.424Z,6.70
2018-08-19T07:44:33.766Z,6.30
2018-08-19T07:45:35.235Z,6.70
2018-08-19T07:46:33.666Z,7.20
2018-08-19T07:47:33.328Z,7.20
2018-08-19T07:48:33.220Z,6.30
2018-08-19T07:49:33.228Z,6.80
2018-08-19T07:50:33.284Z,6.70
2018-08-19T07:51:33.547Z,7.00
2018-08-19T07:52:33.273Z,6.70
2018-08-19T07:53:33.585Z,6.30
2018-08-19T07:54:33.166Z,7.20
2018-08-19T07:55:33.635Z,6.40
2018-08-19T07:56:33.141Z,6.40
2018-08-19T07:57:33.135Z,5.90
2018-08-19T07:58:33.150Z,5.80
2018-08-19T07:59:33.125Z,5.20
2018-08-19T08:00:33.132Z,5.20
2018-08-19T08:01:33.294Z,5.30
2018-08-19T08:02:33.307Z,5.40
2018-08-19T08:03:33.088Z,5.10
2018-08-19T08:04:33.393Z,5.40
2018-08-19T08:05:33.108Z,5.40
2018-08-19T08:06:33.033Z,5.30
2018-08-19T08:07:33.207Z,5.40
2018-08-19T08:08:33.045Z,5.50
2018-08-19T08:09:33.032Z,5.30
2018-08-19T08:10:33.626Z,5.50
2018-08-19T08:11:33.022Z,5.10
2018-08-19T08:12:33.104Z,5.10
2018-08-19T08:13:32.976Z,5.40
2018-08-19T08:14:33.021Z,4.80
2018-08-19T08:15:32.925Z,5.20
2018-08-19T08:16:32.932Z,5.20
2018-08-19T08:17:33.037Z,5.70
2018-08-19T08:18:32.900Z,5.30
2018-08-19T08:19:32.887Z,5.30
2018-08-19T08:20:33.039Z,5.00
2018-08-19T08:21:33.079Z,5.20
2018-08-19T08:22:32.901Z,5.00
2018-08-19T08:23:33.132Z,5.30
2018-08-19T08:24:33.093Z,5.60
2018-08-19T08:25:32.958Z,5.40
2018-08-19T08:26:32.994Z,5.10
2018-08-19T08:27:32.818Z,5.50
2018-08-19T08:28:32.802Z,5.70
2018-08-19T08:29:32.803Z,6.00
2018-08-19T08:30:32.785Z,6.10
2018-08-19T08:31:32.839Z,5.90
2018-08-19T08:32:32.933Z,5.80
2018-08-19T08:33:32.788Z,6.20
2018-08-19T08:34:32.719Z,6.00
2018-08-19T08:35:33.029Z,6.10
2018-08-19T08:36:32.718Z,5.90
2018-08-19T08:37:32.738Z,5.90
2018-08-19T08:38:33.002Z,5.90
2018-08-19T08:39:32.732Z,6.20
2018-08-19T08:40:33.004Z,6.30
2018-08-19T08:41:32.755Z,5.80
2018-08-19T08:42:32.645Z,5.90
2018-08-19T08:43:32.675Z,5.80
2018-08-19T08:44:32.689Z,5.40
2018-08-19T08:45:32.648Z,6.00
2018-08-19T08:46:32.625Z,5.60
2018-08-19T08:47:32.774Z,5.80
2018-08-19T08:48:32.597Z,5.80
2018-08-19T08:49:32.570Z,5.60
2018-08-19T08:50:32.558Z,5.50
2018-08-19T08:51:32.852Z,5.60
2018-08-19T08:52:32.593Z,5.70
2018-08-19T08:53:32.528Z,5.30
2018-08-19T08:54:32.512Z,5.70
2018-08-19T08:55:32.501Z,5.80
2018-08-19T08:56:32.650Z,5.60
2018-08-19T08:57:32.599Z,5.70
2018-08-19T08:58:32.464Z,5.90
2018-08-19T08:59:32.888Z,5.60
2018-08-19T09:00:32.512Z,5.80
2018-08-19T09:01:32.724Z,5.20
2018-08-19T09:02:32.456Z,5.30
2018-08-19T09:03:32.453Z,6.00
2018-08-19T09:04:32.546Z,5.70
2018-08-19T09:05:32.397Z,5.40
2018-08-19T09:06:32.403Z,5.70
2018-08-19T09:07:32.392Z,5.20
2018-08-19T09:08:32.382Z,5.00
2018-08-19T09:09:32.343Z,5.20
2018-08-19T09:10:32.429Z,5.10
2018-08-19T09:11:32.321Z,5.10
2018-08-19T09:12:32.315Z,5.10
2018-08-19T09:13:32.401Z,5.30
2018-08-19T09:14:32.379Z,5.40
2018-08-19T09:15:32.352Z,5.40
2018-08-19T09:16:32.344Z,5.60
2018-08-19T09:17:32.376Z,5.30
2018-08-19T09:18:32.321Z,5.40
2018-08-19T09:19:32.243Z,5.10
2018-08-19T09:20:32.268Z,5.40
2018-08-19T09:21:32.234Z,5.50
2018-08-19T09:22:32.214Z,6.10
2018-08-19T09:23:32.255Z,5.40
2018-08-19T09:24:32.475Z,5.40
2018-08-19T09:25:32.185Z,5.70
2018-08-19T09:26:32.190Z,5.70
2018-08-19T09:27:32.223Z,5.60
2018-08-19T09:28:32.255Z,5.80
2018-08-19T09:29:32.135Z,5.80
2018-08-19T09:30:32.252Z,5.90
2018-08-19T09:31:32.122Z,5.80
2018-08-19T09:32:32.113Z,6.10
2018-08-19T09:33:32.333Z,5.60
2018-08-19T09:34:32.226Z,5.70
2018-08-19T09:35:32.167Z,5.90
2018-08-19T09:36:32.136Z,5.70
2018-08-19T09:37:32.112Z,5.70
2018-08-19T09:38:32.707Z,5.70
2018-08-19T09:39:32.309Z,5.80
2018-08-19T09:40:32.027Z,5.50
2018-08-19T09:41:32.035Z,5.40
2018-08-19T09:42:32.011Z,5.80
2018-08-19T09:43:32.075Z,5.80
2018-08-19T09:44:31.992Z,6.30
2018-08-19T09:45:32.008Z,5.90
2018-08-19T09:46:31.993Z,5.80
2018-08-19T09:47:31.975Z,5.80
2018-08-19T09:48:32.119Z,6.10
2018-08-19T09:49:31.921Z,6.10
2018-08-19T09:50:31.916Z,6.80
2018-08-19T09:51:31.890Z,6.00
2018-08-19T09:52:31.923Z,5.70
2018-08-19T09:53:31.888Z,5.70
2018-08-19T09:54:31.939Z,5.80
2018-08-19T09:55:32.069Z,5.60
2018-08-19T09:56:31.944Z,5.80
2018-08-19T09:57:32.203Z,6.00
2018-08-19T09:58:31.958Z,5.90
2018-08-19T09:59:31.839Z,6.30
2018-08-19T10:00:31.942Z,6.10
2018-08-19T10:01:31.919Z,6.20
2018-08-19T10:02:31.779Z,5.90
2018-08-19T10:03:31.826Z,6.30
2018-08-19T10:04:31.931Z,6.30
2018-08-19T10:05:31.745Z,6.60
2018-08-19T10:06:31.928Z,6.30
2018-08-19T10:07:31.809Z,6.50
2018-08-19T10:08:31.747Z,6.40
2018-08-19T10:09:31.743Z,6.50
2018-08-19T10:10:31.687Z,6.30
2018-08-19T10:11:31.678Z,6.60
2018-08-19T10:12:31.672Z,6.10
2018-08-19T10:13:31.712Z,6.70
2018-08-19T10:14:31.666Z,6.40
2018-08-19T10:15:31.685Z,6.60
2018-08-19T10:16:31.651Z,6.40
2018-08-19T10:17:31.647Z,6.60
2018-08-19T10:18:31.630Z,6.20
2018-08-19T10:19:31.637Z,6.40
2018-08-19T10:20:31.672Z,6.40
2018-08-19T10:21:31.887Z,5.90
2018-08-19T10:22:31.564Z,6.20
2018-08-19T10:23:31.563Z,6.70
2018-08-19T10:24:31.539Z,6.00
2018-08-19T10:25:31.869Z,6.20
2018-08-19T10:26:31.536Z,6.50
2018-08-19T10:27:31.560Z,6.10
2018-08-19T10:28:31.498Z,6.30
2018-08-19T10:29:31.639Z,7.10
2018-08-19T10:30:31.795Z,6.60
2018-08-19T10:31:31.488Z,6.30
2018-08-19T10:32:31.498Z,6.80
2018-08-19T10:33:31.798Z,6.80
2018-08-19T10:34:31.510Z,6.60
2018-08-19T10:35:31.815Z,7.30
2018-08-19T10:36:31.524Z,6.70
2018-08-19T10:37:31.546Z,7.00
2018-08-19T10:38:31.596Z,6.80
2018-08-19T10:39:31.517Z,7.30
2018-08-19T10:40:31.493Z,7.80
2018-08-19T10:41:31.377Z,7.30
2018-08-19T10:42:31.373Z,7.40
2018-08-19T10:43:31.781Z,7.50
2018-08-19T10:44:31.329Z,7.20
2018-08-19T10:45:31.327Z,7.30
2018-08-19T10:46:31.751Z,7.20
2018-08-19T10:47:31.325Z,7.50
2018-08-19T10:48:31.281Z,7.20
2018-08-19T10:49:31.273Z,7.10
2018-08-19T10:50:31.280Z,7.30
2018-08-19T10:51:31.281Z,6.90
2018-08-19T10:52:31.241Z,6.90
2018-08-19T10:53:31.228Z,7.30
2018-08-19T10:54:31.214Z,6.70
2018-08-19T10:55:31.204Z,6.60
2018-08-19T10:56:31.215Z,6.70
2018-08-19T10:57:31.193Z,6.70
2018-08-19T10:58:31.270Z,6.30
2018-08-19T10:59:31.165Z,6.80
2018-08-19T11:00:31.158Z,6.60
2018-08-19T11:01:31.162Z,6.40
2018-08-19T11:02:31.125Z,7.00
2018-08-19T11:03:31.122Z,6.90
2018-08-19T11:04:31.116Z,7.00
2018-08-19T11:05:31.116Z,6.90
2018-08-19T11:06:31.174Z,7.10
2018-08-19T11:07:31.079Z,6.90
2018-08-19T11:08:31.062Z,6.70
2018-08-19T11:09:31.067Z,6.70
2018-08-19T11:10:31.066Z,6.70
2018-08-19T11:11:31.055Z,6.80
2018-08-19T11:12:31.021Z,6.90
2018-08-19T11:13:31.109Z,6.80
2018-08-19T11:14:30.999Z,6.30
2018-08-19T11:15:31.011Z,7.10
2018-08-19T11:16:31.051Z,6.40
2018-08-19T11:17:30.996Z,6.70
2018-08-19T11:18:30.988Z,5.90
2018-08-19T11:19:31.340Z,6.70
2018-08-19T11:20:30.968Z,6.60
2018-08-19T11:21:31.017Z,6.70
2018-08-19T11:22:31.005Z,6.50
2018-08-19T11:23:31.036Z,6.70
2018-08-19T11:24:31.003Z,7.30
2018-08-19T11:25:30.881Z,6.60
2018-08-19T11:26:30.929Z,6.60
2018-08-19T11:27:30.889Z,6.60
2018-08-19T11:28:30.861Z,6.90
2018-08-19T11:29:30.847Z,6.50
2018-08-19T11:30:30.836Z,6.50
2018-08-19T11:31:30.857Z,6.50
2018-08-19T11:32:30.811Z,6.40
2018-08-19T11:33:30.803Z,6.60
2018-08-19T11:34:30.791Z,6.90
2018-08-19T11:35:30.800Z,6.30
2018-08-19T11:36:30.807Z,6.70
2018-08-19T11:37:30.762Z,6.60
2018-08-19T11:38:30.749Z,6.50
2018-08-19T11:39:30.778Z,6.60
2018-08-19T11:40:30.729Z,6.40
2018-08-19T11:41:30.722Z,6.90
2018-08-19T11:42:30.737Z,6.80
2018-08-19T11:43:30.737Z,6.30
2018-08-19T11:44:30.706Z,6.30
2018-08-19T11:45:30.681Z,6.40
2018-08-19T11:46:30.696Z,6.40
2018-08-19T11:47:30.659Z,6.00
2018-08-19T11:48:30.661Z,6.30
2018-08-19T11:49:30.648Z,6.20
2018-08-19T11:50:30.712Z,6.50
2018-08-19T11:51:30.622Z,5.90
2018-08-19T11:52:30.635Z,6.30
2018-08-19T11:53:30.635Z,6.40
2018-08-19T11:54:30.602Z,6.50
2018-08-19T11:55:30.616Z,6.60
2018-08-19T11:56:30.579Z,6.60
2018-08-19T11:57:30.586Z,5.90
2018-08-19T11:58:30.556Z,6.30
2018-08-19T11:59:30.551Z,6.30
2018-08-19T12:00:30.555Z,6.70
2018-08-19T12:01:30.543Z,6.40
2018-08-19T12:02:30.574Z,7.00
2018-08-19T12:03:30.555Z,6.90
2018-08-19T12:04:30.524Z,6.30
2018-08-19T12:05:30.494Z,6.70
2018-08-19T12:06:30.487Z,6.70
2018-08-19T12:07:30.657Z,6.70
2018-08-19T12:08:30.473Z,6.70
2018-08-19T12:09:30.501Z,7.00
2018-08-19T12:10:30.446Z,6.80
2018-08-19T12:11:30.451Z,6.60
2018-08-19T12:12:30.512Z,6.80
2018-08-19T12:13:30.520Z,6.30
2018-08-19T12:14:30.464Z,6.80
2018-08-19T12:15:30.481Z,7.10
2018-08-19T12:16:30.406Z,7.10
2018-08-19T12:17:30.392Z,7.30
2018-08-19T12:18:30.393Z,7.30
2018-08-19T12:19:30.363Z,6.90
2018-08-19T12:20:30.391Z,6.90
2018-08-19T12:21:30.351Z,7.20
2018-08-19T12:22:30.359Z,7.30
2018-08-19T12:23:30.351Z,7.00
2018-08-19T12:24:30.321Z,7.10
2018-08-19T12:25:30.325Z,7.10
2018-08-19T12:26:30.308Z,7.00
2018-08-19T12:27:30.471Z,7.30
2018-08-19T12:28:30.307Z,6.80
2018-08-19T12:29:30.324Z,7.20
2018-08-19T12:30:30.260Z,7.20
2018-08-19T12:31:30.250Z,6.80
2018-08-19T12:32:30.250Z,7.10
2018-08-19T12:33:30.266Z,7.50
2018-08-19T12:34:30.229Z,7.20
2018-08-19T12:35:30.219Z,7.30
2018-08-19T12:36:30.256Z,7.20
2018-08-19T12:37:30.297Z,7.20
2018-08-19T12:38:30.188Z,7.30
2018-08-19T12:39:30.202Z,7.40
2018-08-19T12:40:30.182Z,7.90
2018-08-19T12:41:30.178Z,7.40
2018-08-19T12:42:30.148Z,7.70
2018-08-19T12:43:30.135Z,7.20
2018-08-19T12:44:30.167Z,7.00
2018-08-19T12:45:30.157Z,7.60
2018-08-19T12:46:30.114Z,7.70
2018-08-19T12:47:30.120Z,7.20
2018-08-19T12:48:30.090Z,7.40
2018-08-19T12:49:30.089Z,7.50
2018-08-19T12:50:30.100Z,7.00
2018-08-19T12:51:30.094Z,7.00
2018-08-19T12:52:30.053Z,6.90
2018-08-19T12:53:30.042Z,6.90
2018-08-19T12:54:30.059Z,7.10
2018-08-19T12:55:30.064Z,6.70
2018-08-19T12:56:30.010Z,6.90
2018-08-19T12:57:30.000Z,6.90
2018-08-19T12:58:30.012Z,7.00
2018-08-19T12:59:30.018Z,7.10
2018-08-19T13:00:30.070Z,6.90
2018-08-19T13:01:30.043Z,7.20
2018-08-19T13:02:30.068Z,6.70
2018-08-19T13:03:29.956Z,6.70
2018-08-19T13:04:30.030Z,6.60
2018-08-19T13:05:30.035Z,7.20
2018-08-19T13:06:29.920Z,6.40